Time;durP1;ratioP1;P1;durP2;ratioP2;P2;SDS_P1;SDS_P2;PMS_P1;PMS_P2;Temp;Humidity;BMP_temperature;BMP_pressure;BME280_temperature;BME280_humidity;BME280_pressure;Samples;Min_cycle;Max_cycle;Signal;HPM_P1;HPM_P2
2023/11/21 00:00:12;;;;;;;20.53;16.57;;;;;21.30;99915.00;;;;2062812;28;20219;-67
2023/11/21 00:01:12;;;;;;;22.17;16.92;;;;;21.30;99925.00;;;;2064116;28;20249;-67
2023/11/21 00:02:12;;;;;;;20.73;16.70;;;;;21.30;99923.00;;;;2063457;28;20756;-67
2023/11/21 00:03:14;;;;;;;19.40;16.80;;;;;21.30;99914.00;;;;2064974;28;20214;-67
2023/11/21 00:04:15;;;;;;;20.15;16.05;;;;;21.30;99920.00;;;;2053248;28;20218;-67
2023/11/21 00:05:16;;;;;;;21.77;16.90;;;;;21.30;99919.00;;;;2062393;28;20235;-67
2023/11/21 00:06:16;;;;;;;23.40;17.70;;;;;21.30;99916.00;;;;2061189;28;20234;-67
2023/11/21 00:07:16;;;;;;;18.63;16.13;;;;;21.30;99918.00;;;;2060650;28;20829;-67
2023/11/21 00:08:17;;;;;;;21.53;15.87;;;;;21.30;99917.00;;;;2066825;28;20640;-66
2023/11/21 00:09:18;;;;;;;19.00;15.10;;;;;21.30;99925.00;;;;2058283;28;20309;-66
2023/11/21 00:10:18;;;;;;;19.25;15.40;;;;;21.30;99919.00;;;;2057998;28;20211;-66
2023/11/21 00:11:19;;;;;;;19.97;15.57;;;;;21.30;99922.00;;;;2062570;28;20251;-66
2023/11/21 00:12:20;;;;;;;18.10;15.10;;;;;21.30;99924.00;;;;2050876;28;20231;-66
2023/11/21 00:13:21;;;;;;;18.63;15.18;;;;;21.30;99926.00;;;;2048539;28;20584;-67
2023/11/21 00:14:21;;;;;;;18.90;14.90;;;;;21.30;99920.00;;;;2063119;28;20282;-67
2023/11/21 00:15:22;;;;;;;19.03;14.90;;;;;21.30;99923.00;;;;2062776;28;20246;-67
2023/11/21 00:16:22;;;;;;;17.40;14.47;;;;;21.30;99922.00;;;;2056346;28;20549;-67
2023/11/21 00:17:22;;;;;;;19.13;14.50;;;;;21.30;99928.00;;;;2057645;28;20270;-67
2023/11/21 00:18:23;;;;;;;18.93;14.03;;;;;21.20;99923.00;;;;2051944;28;21759;-67
2023/11/21 00:19:23;;;;;;;20.70;15.07;;;;;21.20;99921.00;;;;2068421;28;20263;-67
2023/11/21 00:20:23;;;;;;;16.93;13.50;;;;;21.20;99923.00;;;;2070488;28;20206;-67
2023/11/21 00:21:24;;;;;;;16.90;13.57;;;;;21.20;99916.00;;;;2063280;28;20215;-67
2023/11/21 00:22:24;;;;;;;19.63;14.53;;;;;21.20;99926.00;;;;2062141;28;20246;-67
2023/11/21 00:23:25;;;;;;;16.20;13.30;;;;;21.20;99923.00;;;;2052571;28;20207;-67
2023/11/21 00:24:25;;;;;;;16.87;14.37;;;;;21.20;99927.00;;;;2071761;28;20673;-67
2023/11/21 00:25:26;;;;;;;17.83;13.17;;;;;21.20;99929.00;;;;2064449;28;20230;-67
2023/11/21 00:26:26;;;;;;;17.47;14.10;;;;;21.20;99931.00;;;;2064092;28;20250;-67
2023/11/21 00:27:26;;;;;;;17.80;14.17;;;;;21.20;99921.00;;;;2064583;28;20582;-67
2023/11/21 00:28:27;;;;;;;16.80;13.17;;;;;21.20;99941.00;;;;2055785;28;20690;-67
2023/11/21 00:29:27;;;;;;;15.43;12.47;;;;;21.20;99935.00;;;;2071053;28;20708;-67
2023/11/21 00:30:28;;;;;;;15.37;12.87;;;;;21.20;99939.00;;;;2071324;28;20702;-65
2023/11/21 00:31:30;;;;;;;15.23;12.30;;;;;21.20;99941.00;;;;2065463;28;20706;-66
2023/11/21 00:32:31;;;;;;;16.85;13.70;;;;;21.20;99939.00;;;;2064086;28;20214;-66
2023/11/21 00:33:31;;;;;;;16.43;12.33;;;;;21.20;99940.00;;;;2054777;28;20215;-66
2023/11/21 00:34:32;;;;;;;17.30;12.50;;;;;21.20;99938.00;;;;2071198;28;20242;-66
2023/11/21 00:35:32;;;;;;;13.03;11.37;;;;;21.20;99942.00;;;;2065058;28;20458;-66
2023/11/21 00:36:33;;;;;;;13.47;10.90;;;;;21.20;99946.00;;;;2067923;28;20244;-66
2023/11/21 00:37:33;;;;;;;16.87;12.00;;;;;21.20;99940.00;;;;2063469;28;20215;-66
2023/11/21 00:38:34;;;;;;;15.10;11.43;;;;;21.20;99941.00;;;;2054727;28;20235;-66
2023/11/21 00:39:35;;;;;;;13.63;11.17;;;;;21.20;99932.00;;;;2064816;28;20261;-66
2023/11/21 00:40:35;;;;;;;12.80;10.90;;;;;21.20;99930.00;;;;2064742;28;20231;-66
2023/11/21 00:41:36;;;;;;;16.50;11.30;;;;;21.20;99916.00;;;;2062651;28;20844;-66
2023/11/21 00:42:36;;;;;;;13.07;10.90;;;;;21.20;99939.00;;;;2063811;28;21050;-66
2023/11/21 00:43:37;;;;;;;13.80;11.80;;;;;21.10;99947.00;;;;2053514;28;20265;-66
2023/11/21 00:44:40;;;;;;;13.50;11.17;;;;;21.20;99941.00;;;;2063721;28;20218;-66
2023/11/21 00:45:40;;;;;;;14.02;12.18;;;;;21.20;99945.00;;;;2065870;28;20213;-66
2023/11/21 00:46:41;;;;;;;13.03;11.03;;;;;21.10;99936.00;;;;2064576;28;20982;-66
2023/11/21 00:47:42;;;;;;;13.90;11.53;;;;;21.10;99933.00;;;;2065054;28;20223;-66
2023/11/21 00:48:42;;;;;;;13.63;10.70;;;;;21.10;99943.00;;;;2059254;28;20468;-66
2023/11/21 00:49:43;;;;;;;13.23;10.97;;;;;21.10;99938.00;;;;2064042;28;20245;-66
2023/11/21 00:50:44;;;;;;;12.40;10.43;;;;;21.10;99935.00;;;;2064910;28;20947;-66
2023/11/21 00:51:44;;;;;;;13.30;10.47;;;;;21.10;99936.00;;;;2064788;28;20243;-66
2023/11/21 00:52:44;;;;;;;12.77;10.40;;;;;21.10;99938.00;;;;2064125;28;21393;-66
2023/11/21 00:53:45;;;;;;;15.20;11.30;;;;;21.10;99934.00;;;;2054658;28;22772;-66
2023/11/21 00:54:46;;;;;;;11.93;10.13;;;;;21.10;99925.00;;;;2064200;28;20745;-66
2023/11/21 00:55:46;;;;;;;14.40;10.57;;;;;21.20;99928.00;;;;2068633;28;21047;-66
2023/11/21 00:56:49;;;;;;;11.53;9.90;;;;;21.10;99936.00;;;;2064078;28;20469;-66
2023/11/21 00:57:49;;;;;;;11.00;9.68;;;;;21.10;99938.00;;;;2063311;28;20249;-66
2023/11/21 00:58:52;;;;;;;13.43;10.00;;;;;21.10;99932.00;;;;2052419;28;20223;-66
2023/11/21 00:59:52;;;;;;;13.02;9.18;;;;;21.10;99931.00;;;;2065813;28;20293;-66
2023/11/21 01:00:53;;;;;;;10.70;9.60;;;;;21.10;99926.00;;;;2064916;28;20219;-66
2023/11/21 01:01:54;;;;;;;12.00;9.60;;;;;21.20;99928.00;;;;2065235;28;20606;-66
2023/11/21 01:02:54;;;;;;;12.00;9.32;;;;;21.20;99932.00;;;;2067635;28;20214;-66
2023/11/21 01:03:55;;;;;;;14.43;9.93;;;;;21.10;99934.00;;;;2054840;28;20230;-66
2023/11/21 01:04:55;;;;;;;11.90;8.70;;;;;21.10;99940.00;;;;2064014;28;20253;-66
2023/11/21 01:05:55;;;;;;;11.30;8.77;;;;;21.10;99942.00;;;;2062058;28;20215;-66
2023/11/21 01:06:56;;;;;;;10.90;9.10;;;;;21.10;99940.00;;;;2059785;28;20286;-66
2023/11/21 01:07:56;;;;;;;10.73;9.00;;;;;21.10;99933.00;;;;2064622;28;20227;-66
2023/11/21 01:08:56;;;;;;;12.23;9.50;;;;;21.10;99941.00;;;;2054849;28;20215;-66
2023/11/21 01:09:57;;;;;;;12.20;9.00;;;;;21.10;99943.00;;;;2063050;28;20757;-66
2023/11/21 01:10:57;;;;;;;10.67;8.90;;;;;21.10;99938.00;;;;2060725;28;20599;-66
2023/11/21 01:11:59;;;;;;;12.40;10.47;;;;;21.10;99935.00;;;;2063922;28;21285;-66
2023/11/21 01:12:59;;;;;;;12.63;8.88;;;;;21.10;99936.00;;;;2064544;28;20299;-66
2023/11/21 01:14:00;;;;;;;10.57;9.23;;;;;21.10;99939.00;;;;2054877;28;20227;-66
2023/11/21 01:15:00;;;;;;;10.90;8.90;;;;;21.10;99929.00;;;;2066949;28;20646;-66
2023/11/21 01:16:00;;;;;;;10.97;8.87;;;;;21.10;99939.00;;;;2061713;28;20241;-66
2023/11/21 01:17:01;;;;;;;11.60;9.00;;;;;21.10;99943.00;;;;2068601;28;20678;-66
2023/11/21 01:18:01;;;;;;;12.20;8.67;;;;;21.00;99951.00;;;;2067840;28;20626;-66
2023/11/21 01:19:02;;;;;;;12.03;8.53;;;;;21.10;99944.00;;;;2054723;28;20215;-66
2023/11/21 01:20:03;;;;;;;11.03;8.53;;;;;21.10;99944.00;;;;2063253;28;20239;-66
2023/11/21 01:21:03;;;;;;;11.15;8.90;;;;;21.10;99952.00;;;;2062262;28;20223;-66
2023/11/21 01:22:04;;;;;;;9.60;7.40;;;;;21.10;99949.00;;;;2064445;28;20685;-66
2023/11/21 01:23:04;;;;;;;9.20;8.27;;;;;21.00;99947.00;;;;2064434;28;20772;-66
2023/11/21 01:24:07;;;;;;;11.00;8.77;;;;;21.10;99954.00;;;;2059420;28;20248;-66
2023/11/21 01:25:07;;;;;;;10.85;8.25;;;;;21.10;99954.00;;;;2071737;28;20280;-66
2023/11/21 01:26:08;;;;;;;12.10;8.40;;;;;21.00;99957.00;;;;2060556;28;21156;-66
2023/11/21 01:27:08;;;;;;;10.03;7.37;;;;;21.00;99956.00;;;;2063471;28;20650;-66
2023/11/21 01:28:09;;;;;;;9.50;7.83;;;;;21.10;99967.00;;;;2064597;28;20528;-66
2023/11/21 01:29:09;;;;;;;9.80;8.53;;;;;21.10;99958.00;;;;2052850;28;20211;-66
2023/11/21 01:30:12;;;;;;;10.70;8.50;;;;;21.00;99960.00;;;;2063700;28;20313;-66
2023/11/21 01:31:13;;;;;;;9.82;7.45;;;;;21.00;99963.00;;;;2063094;28;20218;-66
2023/11/21 01:32:13;;;;;;;9.13;8.07;;;;;21.10;99965.00;;;;2061047;28;20599;-66
2023/11/21 01:33:15;;;;;;;9.60;8.20;;;;;21.00;99959.00;;;;2063837;28;20706;-66
2023/11/21 01:34:15;;;;;;;10.38;8.00;;;;;21.00;99964.00;;;;2056163;28;20269;-66
2023/11/21 01:35:16;;;;;;;8.23;7.10;;;;;21.00;99959.00;;;;2062914;28;20218;-66
2023/11/21 01:36:16;;;;;;;11.00;7.87;;;;;21.00;99968.00;;;;2062943;28;20737;-66
2023/11/21 01:37:17;;;;;;;9.63;8.30;;;;;21.00;99968.00;;;;2062889;28;20733;-66
2023/11/21 01:38:17;;;;;;;8.77;7.80;;;;;21.00;99968.00;;;;2064486;28;20218;-66
2023/11/21 01:39:23;;;;;;;8.40;7.47;;;;;21.00;99969.00;;;;2054823;28;20226;-66
2023/11/21 01:40:24;;;;;;;9.40;7.80;;;;;21.00;99965.00;;;;2064848;28;20627;-66
2023/11/21 01:41:27;;;;;;;9.40;7.60;;;;;21.00;99972.00;;;;2063579;28;20215;-66
2023/11/21 01:42:29;;;;;;;8.85;7.45;;;;;21.00;99962.00;;;;2063141;28;20470;-66
2023/11/21 01:43:31;;;;;;;8.60;6.93;;;;;21.00;99966.00;;;;2052511;28;20686;-66
2023/11/21 01:44:32;;;;;;;7.82;6.40;;;;;21.00;99969.00;;;;2062808;28;20618;-66
2023/11/21 01:45:33;;;;;;;10.50;7.40;;;;;21.00;99959.00;;;;2065302;28;20250;-66
2023/11/21 01:46:34;;;;;;;7.75;6.70;;;;;21.00;99959.00;;;;2063349;28;20667;-66
2023/11/21 01:47:35;;;;;;;15.68;7.53;;;;;21.00;99963.00;;;;2063460;28;20311;-66
2023/11/21 01:48:36;;;;;;;8.93;7.18;;;;;21.00;99934.00;;;;2061052;28;20214;-66
2023/11/21 01:49:36;;;;;;;8.27;6.60;;;;;21.00;99962.00;;;;2061233;28;20221;-66
2023/11/21 01:50:37;;;;;;;8.53;6.37;;;;;21.00;99961.00;;;;2059201;28;20218;-66
2023/11/21 01:51:37;;;;;;;8.33;6.43;;;;;21.00;99965.00;;;;2056617;28;20290;-66
2023/11/21 01:52:37;;;;;;;7.77;6.90;;;;;21.00;99963.00;;;;2063126;28;20215;-66
2023/11/21 01:53:38;;;;;;;8.50;7.17;;;;;21.00;99970.00;;;;2052730;28;20710;-66
2023/11/21 01:54:39;;;;;;;8.03;6.90;;;;;21.00;99968.00;;;;2056010;28;20270;-66
2023/11/21 01:55:40;;;;;;;7.33;6.33;;;;;21.00;99965.00;;;;2053414;28;20459;-66
2023/11/21 01:56:40;;;;;;;8.65;7.30;;;;;21.00;99964.00;;;;2055290;28;20269;-66
2023/11/21 01:57:40;;;;;;;9.13;6.80;;;;;21.00;99965.00;;;;2054946;28;20768;-66
2023/11/21 01:58:41;;;;;;;8.30;6.70;;;;;21.00;99954.00;;;;2045739;28;20227;-66
2023/11/21 01:59:42;;;;;;;8.80;6.30;;;;;21.00;99965.00;;;;2056687;28;20210;-66
2023/11/21 02:00:43;;;;;;;7.80;6.40;;;;;21.00;99964.00;;;;2061890;28;20222;-66
2023/11/21 02:01:43;;;;;;;10.90;6.90;;;;;21.00;99965.00;;;;2063993;28;20298;-66
2023/11/21 02:02:44;;;;;;;8.07;6.20;;;;;20.90;99970.00;;;;2060107;28;20555;-66
2023/11/21 02:03:45;;;;;;;7.77;6.23;;;;;21.00;99979.00;;;;2054231;28;20285;-66
2023/11/21 02:04:45;;;;;;;6.53;5.80;;;;;21.00;99975.00;;;;2060871;28;20938;-66
2023/11/21 02:05:46;;;;;;;10.37;6.40;;;;;20.90;99968.00;;;;2063175;28;20303;-66
2023/11/21 02:06:46;;;;;;;7.40;6.50;;;;;21.00;99968.00;;;;2063842;28;20218;-66
2023/11/21 02:07:47;;;;;;;9.57;5.60;;;;;21.00;99966.00;;;;2062732;28;20273;-66
2023/11/21 02:08:48;;;;;;;7.13;6.25;;;;;21.00;99973.00;;;;2053093;28;20222;-66
2023/11/21 02:09:49;;;;;;;7.90;6.50;;;;;21.00;99972.00;;;;2067890;28;20222;-66
2023/11/21 02:10:49;;;;;;;6.63;5.90;;;;;21.00;99975.00;;;;2063830;28;20219;-66
2023/11/21 02:11:49;;;;;;;7.20;5.40;;;;;21.00;99974.00;;;;2064830;28;20260;-66
2023/11/21 02:12:50;;;;;;;7.80;6.43;;;;;21.00;99973.00;;;;2063291;28;20214;-66
2023/11/21 02:13:53;;;;;;;10.27;6.47;;;;;21.00;99988.00;;;;2055539;28;20284;-66
2023/11/21 02:14:54;;;;;;;6.82;6.03;;;;;21.00;99968.00;;;;2069010;28;20223;-66
2023/11/21 02:15:54;;;;;;;8.40;5.40;;;;;21.00;99977.00;;;;2062909;28;20254;-66
2023/11/21 02:16:55;;;;;;;7.10;6.00;;;;;21.00;99980.00;;;;2064939;28;20223;-66
2023/11/21 02:17:58;;;;;;;6.60;5.90;;;;;21.00;99971.00;;;;2064303;28;20222;-66
2023/11/21 02:18:58;;;;;;;6.88;5.88;;;;;21.00;99980.00;;;;2054856;28;20277;-66
2023/11/21 02:19:59;;;;;;;6.97;5.60;;;;;21.00;99978.00;;;;2063491;28;20759;-66
2023/11/21 02:21:02;;;;;;;7.10;5.87;;;;;21.00;99973.00;;;;2062816;28;20582;-66
2023/11/21 02:22:06;;;;;;;8.02;6.53;;;;;20.90;99975.00;;;;2064282;28;20829;-66
2023/11/21 02:23:07;;;;;;;7.07;6.10;;;;;20.90;99978.00;;;;2062984;28;20270;-66
2023/11/21 02:24:07;;;;;;;9.02;6.22;;;;;21.00;99986.00;;;;2056268;28;20268;-66
2023/11/21 02:25:08;;;;;;;7.67;5.93;;;;;20.90;99986.00;;;;2063414;28;20269;-66
2023/11/21 02:26:09;;;;;;;7.25;5.50;;;;;20.90;99986.00;;;;2066945;28;20232;-66
2023/11/21 02:27:10;;;;;;;6.10;5.33;;;;;20.90;99988.00;;;;2066495;28;20239;-66
2023/11/21 02:28:12;;;;;;;7.53;5.93;;;;;20.90;99958.00;;;;2053201;28;20535;-66
2023/11/21 02:29:13;;;;;;;7.63;5.90;;;;;20.90;99987.00;;;;2037662;28;20224;-66
2023/11/21 02:30:14;;;;;;;9.10;6.20;;;;;20.90;99984.00;;;;2060597;28;20207;-66
2023/11/21 02:31:14;;;;;;;7.25;5.43;;;;;20.90;99988.00;;;;2062580;28;20215;-66
2023/11/21 02:32:16;;;;;;;7.13;5.80;;;;;20.90;99990.00;;;;2063688;28;20203;-66
2023/11/21 02:33:17;;;;;;;6.28;5.63;;;;;20.90;99991.00;;;;2062128;28;20234;-66
2023/11/21 02:34:17;;;;;;;6.80;5.33;;;;;20.90;99996.00;;;;2053822;28;20265;-66
2023/11/21 02:35:18;;;;;;;6.13;5.53;;;;;20.90;99999.00;;;;2064110;28;20259;-66
2023/11/21 02:36:18;;;;;;;6.47;5.10;;;;;20.90;99993.00;;;;2065477;28;20227;-66
2023/11/21 02:37:18;;;;;;;7.57;5.50;;;;;20.90;99995.00;;;;2063533;28;20234;-66
2023/11/21 02:38:19;;;;;;;6.43;5.27;;;;;21.00;100001.00;;;;2064863;28;20231;-66
2023/11/21 02:39:22;;;;;;;7.90;5.10;;;;;20.90;99990.00;;;;2053852;28;21340;-66
2023/11/21 02:40:24;;;;;;;6.85;5.60;;;;;20.90;99992.00;;;;2069548;28;20214;-66
2023/11/21 02:41:25;;;;;;;8.95;5.68;;;;;20.90;99996.00;;;;2065277;28;20207;-66
2023/11/21 02:42:26;;;;;;;5.72;4.85;;;;;20.90;99997.00;;;;2062604;28;20223;-66
2023/11/21 02:43:26;;;;;;;5.80;4.90;;;;;20.90;99995.00;;;;2052420;28;20250;-66
2023/11/21 02:44:26;;;;;;;5.60;5.10;;;;;20.90;99998.00;;;;2064188;28;20249;-66
2023/11/21 02:45:27;;;;;;;6.20;5.13;;;;;20.90;99992.00;;;;2063569;28;20215;-66
2023/11/21 02:46:27;;;;;;;7.40;4.53;;;;;20.90;99997.00;;;;2062424;28;20242;-66
2023/11/21 02:47:28;;;;;;;7.20;5.80;;;;;20.90;100010.00;;;;2068685;28;20268;-66
2023/11/21 02:48:30;;;;;;;9.02;6.57;;;;;20.90;99995.00;;;;2055058;28;20218;-66
2023/11/21 02:49:31;;;;;;;6.85;6.15;;;;;20.90;100002.00;;;;2064090;28;20253;-66
2023/11/21 02:50:31;;;;;;;6.40;5.80;;;;;20.90;100013.00;;;;2059578;28;20604;-66
2023/11/21 02:51:32;;;;;;;6.20;5.57;;;;;20.90;100009.00;;;;2061178;28;20254;-66
2023/11/21 02:52:33;;;;;;;7.23;5.83;;;;;20.90;100008.00;;;;2064045;28;20284;-66
2023/11/21 02:53:33;;;;;;;8.47;6.00;;;;;20.90;100006.00;;;;2054163;28;20484;-66
2023/11/21 02:54:36;;;;;;;7.43;6.47;;;;;20.90;100004.00;;;;2066826;28;20957;-66
2023/11/21 02:55:36;;;;;;;6.80;6.05;;;;;20.80;100008.00;;;;2063247;28;20306;-66
2023/11/21 02:56:37;;;;;;;8.73;6.43;;;;;20.90;100011.00;;;;2059544;28;20219;-66
2023/11/21 02:57:37;;;;;;;6.53;5.80;;;;;20.90;99999.00;;;;2063848;28;20288;-66
2023/11/21 02:58:38;;;;;;;7.07;6.20;;;;;20.90;99981.00;;;;2051640;28;20766;-66
2023/11/21 02:59:38;;;;;;;6.97;6.27;;;;;20.90;100008.00;;;;2070995;28;20218;-66
2023/11/21 03:00:41;;;;;;;7.10;6.10;;;;;20.80;100015.00;;;;2063555;28;20579;-66
2023/11/21 03:01:42;;;;;;;6.32;5.72;;;;;20.80;100016.00;;;;2062731;28;20214;-66
2023/11/21 03:02:43;;;;;;;7.43;6.10;;;;;20.80;100018.00;;;;2063241;28;20219;-66
2023/11/21 03:03:43;;;;;;;8.52;5.88;;;;;20.80;100017.00;;;;2052677;28;20265;-66
2023/11/21 03:04:44;;;;;;;6.77;6.07;;;;;20.80;100017.00;;;;2060509;28;20560;-66
2023/11/21 03:05:44;;;;;;;6.73;6.07;;;;;20.90;100020.00;;;;2063313;28;20207;-66
2023/11/21 03:06:44;;;;;;;6.73;6.03;;;;;20.90;100022.00;;;;2069036;28;20418;-66
2023/11/21 03:07:45;;;;;;;7.33;6.43;;;;;20.80;100017.00;;;;2061248;28;20223;-66
2023/11/21 03:08:45;;;;;;;6.87;6.23;;;;;20.80;100025.00;;;;2054802;28;20235;-66
2023/11/21 03:09:46;;;;;;;8.00;6.40;;;;;20.80;100017.00;;;;2063740;28;20211;-66
2023/11/21 03:10:46;;;;;;;8.47;6.57;;;;;20.90;100025.00;;;;2063638;28;20242;-66
2023/11/21 03:11:46;;;;;;;6.87;6.17;;;;;20.80;100013.00;;;;2063318;28;20244;-66
2023/11/21 03:12:47;;;;;;;6.43;5.30;;;;;20.80;100017.00;;;;2063512;28;20214;-66
2023/11/21 03:13:47;;;;;;;7.40;6.13;;;;;20.80;100024.00;;;;2054535;28;20245;-66
2023/11/21 03:14:47;;;;;;;7.00;6.13;;;;;20.80;100020.00;;;;2062351;28;20231;-66
2023/11/21 03:15:48;;;;;;;6.73;5.77;;;;;20.80;100027.00;;;;2063952;28;20594;-66
2023/11/21 03:16:49;;;;;;;6.37;5.80;;;;;20.80;100024.00;;;;2063463;28;20684;-66
2023/11/21 03:17:49;;;;;;;9.03;5.97;;;;;20.80;100025.00;;;;2063793;28;20218;-66
2023/11/21 03:18:50;;;;;;;6.70;5.90;;;;;20.80;100024.00;;;;2060638;28;20512;-66
2023/11/21 03:19:52;;;;;;;6.07;5.47;;;;;20.80;100027.00;;;;2063622;28;20266;-66
2023/11/21 03:20:52;;;;;;;6.78;6.07;;;;;20.80;100023.00;;;;2067143;28;20210;-66
2023/11/21 03:21:53;;;;;;;5.90;5.30;;;;;20.80;100025.00;;;;2063357;28;20237;-66
2023/11/21 03:22:53;;;;;;;6.40;5.80;;;;;20.80;100013.00;;;;2062476;28;20999;-66
2023/11/21 03:23:54;;;;;;;6.70;5.80;;;;;20.80;100020.00;;;;2053154;28;20238;-66
2023/11/21 03:24:54;;;;;;;7.50;6.13;;;;;20.80;100018.00;;;;2062846;28;20210;-66
2023/11/21 03:25:54;;;;;;;7.73;6.60;;;;;20.80;100020.00;;;;2062394;28;20211;-66
2023/11/21 03:26:54;;;;;;;8.67;6.33;;;;;20.80;100016.00;;;;2063119;28;20241;-66
2023/11/21 03:27:55;;;;;;;5.40;4.90;;;;;20.80;100020.00;;;;2064038;28;20213;-66
2023/11/21 03:28:55;;;;;;;6.30;5.63;;;;;20.80;100025.00;;;;2045725;28;20223;-66
2023/11/21 03:29:56;;;;;;;6.00;5.40;;;;;20.80;100024.00;;;;2070541;28;20252;-66
2023/11/21 03:30:56;;;;;;;5.43;4.93;;;;;20.80;100027.00;;;;2069492;28;20218;-66
2023/11/21 03:31:56;;;;;;;7.30;6.30;;;;;20.80;100034.00;;;;2062104;28;20215;-66
2023/11/21 03:32:56;;;;;;;5.97;5.10;;;;;20.80;100037.00;;;;2062788;28;20283;-66
2023/11/21 03:33:57;;;;;;;6.30;5.70;;;;;20.80;100038.00;;;;2054046;28;20710;-66
2023/11/21 03:34:58;;;;;;;5.80;5.30;;;;;20.80;100034.00;;;;2063299;28;20580;-66
2023/11/21 03:35:58;;;;;;;6.83;6.13;;;;;20.80;100042.00;;;;2063600;28;20681;-66
2023/11/21 03:36:58;;;;;;;6.77;6.03;;;;;20.80;100039.00;;;;2061460;28;20965;-66
2023/11/21 03:37:59;;;;;;;6.67;6.07;;;;;20.80;100043.00;;;;2062451;28;20222;-66
2023/11/21 03:38:59;;;;;;;6.47;5.43;;;;;20.80;100041.00;;;;2053920;28;20227;-66
2023/11/21 03:39:59;;;;;;;9.23;6.13;;;;;20.80;100042.00;;;;2063557;28;21033;-66
2023/11/21 03:41:00;;;;;;;6.83;5.90;;;;;20.80;100048.00;;;;2062585;28;21083;-66
2023/11/21 03:42:00;;;;;;;6.10;5.50;;;;;20.80;100044.00;;;;2063295;28;20657;-66
2023/11/21 03:43:00;;;;;;;5.87;5.27;;;;;20.80;100049.00;;;;2063593;28;20714;-66
2023/11/21 03:44:01;;;;;;;7.37;5.50;;;;;20.80;100051.00;;;;2050767;28;20717;-66
2023/11/21 03:45:02;;;;;;;6.10;5.50;;;;;20.70;100053.00;;;;2062933;28;20214;-66
2023/11/21 03:46:03;;;;;;;6.05;5.03;;;;;20.80;100054.00;;;;2063475;28;20215;-66
2023/11/21 03:47:03;;;;;;;6.57;5.90;;;;;20.80;100055.00;;;;2066095;28;20230;-66
2023/11/21 03:48:04;;;;;;;6.57;5.40;;;;;20.70;100057.00;;;;2062737;28;20233;-66
2023/11/21 03:49:04;;;;;;;6.67;6.07;;;;;20.80;100062.00;;;;2055856;28;20230;-66
2023/11/21 03:50:05;;;;;;;7.27;6.37;;;;;20.70;100063.00;;;;2068721;28;20242;-66
2023/11/21 03:51:06;;;;;;;6.70;6.10;;;;;20.70;100069.00;;;;2063557;28;20301;-66
2023/11/21 03:52:07;;;;;;;7.30;6.47;;;;;20.80;100067.00;;;;2063658;28;20215;-66
2023/11/21 03:53:07;;;;;;;6.75;5.82;;;;;20.80;100062.00;;;;2062015;28;20211;-66
2023/11/21 03:54:08;;;;;;;6.23;5.63;;;;;20.80;100073.00;;;;2053568;28;20233;-66
2023/11/21 03:55:08;;;;;;;5.93;5.33;;;;;20.80;100068.00;;;;2062552;28;20215;-66
2023/11/21 03:56:09;;;;;;;5.97;5.43;;;;;20.80;100066.00;;;;2062175;28;20273;-66
2023/11/21 03:57:09;;;;;;;5.97;5.43;;;;;20.70;100064.00;;;;2062985;28;20215;-66
2023/11/21 03:58:10;;;;;;;6.70;5.77;;;;;20.70;100069.00;;;;2062106;28;20528;-66
2023/11/21 03:59:10;;;;;;;5.57;4.80;;;;;20.70;100068.00;;;;2054338;28;20285;-66
2023/11/21 04:00:11;;;;;;;6.00;5.40;;;;;20.80;100061.00;;;;2065252;28;20226;-66
2023/11/21 04:01:11;;;;;;;6.70;6.10;;;;;20.70;100069.00;;;;2064878;28;20218;-66
2023/11/21 04:02:11;;;;;;;8.83;5.77;;;;;20.70;100079.00;;;;2063753;28;20249;-66
2023/11/21 04:03:13;;;;;;;7.37;6.20;;;;;20.70;100077.00;;;;2061238;28;20227;-66
2023/11/21 04:04:13;;;;;;;6.72;6.13;;;;;20.70;100057.00;;;;2055730;28;20269;-66
2023/11/21 04:05:14;;;;;;;6.70;5.53;;;;;20.70;100074.00;;;;2064819;28;20242;-66
2023/11/21 04:06:14;;;;;;;6.40;5.80;;;;;20.70;100066.00;;;;2061718;28;20578;-66
2023/11/21 04:07:14;;;;;;;6.40;5.80;;;;;20.70;100073.00;;;;2063632;28;20222;-66
2023/11/21 04:08:15;;;;;;;6.10;5.60;;;;;20.70;100069.00;;;;2061550;28;20220;-66
2023/11/21 04:09:15;;;;;;;6.40;5.73;;;;;20.70;100068.00;;;;2063632;28;20301;-66
2023/11/21 04:10:15;;;;;;;5.80;5.20;;;;;20.70;100068.00;;;;2069389;28;20222;-66
2023/11/21 04:11:16;;;;;;;7.13;5.87;;;;;20.70;100080.00;;;;2061927;28;20277;-66
2023/11/21 04:12:16;;;;;;;6.13;5.03;;;;;20.70;100079.00;;;;2060328;28;20230;-66
2023/11/21 04:13:16;;;;;;;5.63;4.90;;;;;20.70;100080.00;;;;2064271;28;20720;-66
2023/11/21 04:14:17;;;;;;;7.03;5.13;;;;;20.70;100075.00;;;;2061986;28;20226;-66
2023/11/21 04:15:17;;;;;;;5.80;5.07;;;;;20.70;100075.00;;;;2070491;28;20249;-67
2023/11/21 04:16:18;;;;;;;5.80;5.30;;;;;20.70;100069.00;;;;2064009;28;20223;-66
2023/11/21 04:17:19;;;;;;;7.63;5.37;;;;;20.70;100074.00;;;;2064406;28;20215;-66
2023/11/21 04:18:19;;;;;;;6.60;5.00;;;;;20.70;100073.00;;;;2060013;28;20450;-66
2023/11/21 04:19:20;;;;;;;5.70;5.10;;;;;20.70;100081.00;;;;2058509;28;20238;-66
2023/11/21 04:20:22;;;;;;;5.43;4.93;;;;;20.70;100075.00;;;;2064125;28;20304;-66
2023/11/21 04:21:24;;;;;;;6.15;5.30;;;;;20.70;100079.00;;;;2065027;28;20225;-66
2023/11/21 04:22:24;;;;;;;5.85;5.13;;;;;20.70;100084.00;;;;2067960;28;20256;-66
2023/11/21 04:23:25;;;;;;;6.53;5.57;;;;;20.70;100077.00;;;;2057847;28;20219;-66
2023/11/21 04:24:25;;;;;;;7.40;4.60;;;;;20.70;100083.00;;;;2065231;28;20214;-66
2023/11/21 04:25:27;;;;;;;6.97;5.47;;;;;20.70;100080.00;;;;2066304;28;20252;-66
2023/11/21 04:26:27;;;;;;;5.80;5.10;;;;;20.70;100079.00;;;;2064855;28;20300;-66
2023/11/21 04:27:27;;;;;;;8.73;4.90;;;;;20.70;100088.00;;;;2067058;28;20222;-66
2023/11/21 04:28:28;;;;;;;6.57;5.10;;;;;20.70;100083.00;;;;2056465;28;20218;-66
2023/11/21 04:29:28;;;;;;;5.20;4.70;;;;;20.70;100079.00;;;;2063203;28;20278;-66
2023/11/21 04:30:28;;;;;;;5.80;5.20;;;;;20.70;100087.00;;;;2063689;28;20219;-66
2023/11/21 04:31:29;;;;;;;5.60;4.80;;;;;20.70;100086.00;;;;2061966;28;20218;-66
2023/11/21 04:32:29;;;;;;;5.37;4.87;;;;;20.70;100084.00;;;;2060512;28;20223;-66
2023/11/21 04:33:30;;;;;;;5.13;4.60;;;;;20.70;100085.00;;;;2054025;28;20289;-66
2023/11/21 04:34:30;;;;;;;6.00;4.80;;;;;20.70;100079.00;;;;2064141;28;20230;-66
2023/11/21 04:35:31;;;;;;;6.47;5.10;;;;;20.70;100084.00;;;;2063464;28;20489;-66
2023/11/21 04:36:31;;;;;;;6.90;4.87;;;;;20.70;100091.00;;;;2065326;28;20214;-66
2023/11/21 04:37:31;;;;;;;4.67;4.27;;;;;20.70;100092.00;;;;2066719;28;20742;-66
2023/11/21 04:38:32;;;;;;;7.60;5.00;;;;;20.70;100094.00;;;;2055256;28;20729;-66
2023/11/21 04:39:33;;;;;;;5.38;4.35;;;;;20.70;100088.00;;;;2063187;28;20698;-66
2023/11/21 04:40:33;;;;;;;7.33;5.17;;;;;20.70;100090.00;;;;2064450;28;20230;-66
2023/11/21 04:41:33;;;;;;;5.07;4.40;;;;;20.70;100088.00;;;;2068247;28;20245;-66
2023/11/21 04:42:35;;;;;;;8.10;4.53;;;;;20.70;100086.00;;;;2066390;28;20239;-66
2023/11/21 04:43:36;;;;;;;4.75;4.35;;;;;20.70;100088.00;;;;2054273;28;20222;-66
2023/11/21 04:44:36;;;;;;;5.20;4.17;;;;;20.70;100087.00;;;;2064583;28;20230;-66
2023/11/21 04:45:37;;;;;;;4.87;4.33;;;;;20.70;100088.00;;;;2062080;28;20230;-66
2023/11/21 04:46:37;;;;;;;5.10;4.60;;;;;20.70;100091.00;;;;2064241;28;20226;-66
2023/11/21 04:47:37;;;;;;;5.30;4.80;;;;;20.70;100092.00;;;;2064842;28;20227;-66
2023/11/21 04:48:38;;;;;;;5.00;4.50;;;;;20.70;100097.00;;;;2058584;28;20272;-66
2023/11/21 04:49:42;;;;;;;4.80;4.40;;;;;20.60;100096.00;;;;2061898;28;20321;-66
2023/11/21 04:50:42;;;;;;;5.10;4.20;;;;;20.60;100104.00;;;;2071252;28;20214;-66
2023/11/21 04:51:42;;;;;;;5.73;4.53;;;;;20.60;100102.00;;;;2063594;28;20214;-66
2023/11/21 04:52:42;;;;;;;4.80;3.90;;;;;20.70;100101.00;;;;2065016;28;20219;-66
2023/11/21 04:53:43;;;;;;;5.17;4.37;;;;;20.70;100098.00;;;;2055169;28;20219;-66
2023/11/21 04:54:43;;;;;;;5.40;4.67;;;;;20.70;100091.00;;;;2064665;28;20238;-66
2023/11/21 04:55:44;;;;;;;5.33;4.10;;;;;20.60;100100.00;;;;2064370;28;20218;-66
2023/11/21 04:56:44;;;;;;;5.90;4.40;;;;;20.60;100102.00;;;;2063437;28;20217;-66
2023/11/21 04:57:45;;;;;;;5.30;4.10;;;;;20.70;100107.00;;;;2066338;28;20217;-66
2023/11/21 04:58:45;;;;;;;6.13;4.57;;;;;20.70;100100.00;;;;2058369;28;20210;-66
2023/11/21 04:59:46;;;;;;;5.60;5.00;;;;;20.60;100107.00;;;;2063862;28;20465;-66